sensor_id;sensor_type;location;lat;lon;timestamp;temperature;humidity
7518;DHT22;3800;48.922;9.444;2023-02-28T00:00:27;-1.70;99.90
7518;DHT22;3800;48.922;9.444;2023-02-28T00:02:54;-1.70;99.90
7518;DHT22;3800;48.922;9.444;2023-02-28T00:05:22;-1.80;99.90
7518;DHT22;3800;48.922;9.444;2023-02-28T00:07:50;-1.80;99.90
7518;DHT22;3800;48.922;9.444;2023-02-28T00:10:19;-1.70;99.90
7518;DHT22;3800;48.922;9.444;2023-02-28T00:12:47;-1.70;99.90
7518;DHT22;3800;48.922;9.444;2023-02-28T00:15:14;-1.70;99.90
7518;DHT22;3800;48.922;9.444;2023-02-28T00:17:42;-1.70;99.90
7518;DHT22;3800;48.922;9.444;2023-02-28T00:20:10;-1.70;99.90
7518;DHT22;3800;48.922;9.444;2023-02-28T00:22:39;-1.70;99.90
7518;DHT22;3800;48.922;9.444;2023-02-28T00:25:06;-1.70;99.90
7518;DHT22;3800;48.922;9.444;2023-02-28T00:27:35;-1.70;99.90
7518;DHT22;3800;48.922;9.444;2023-02-28T00:30:02;-1.70;99.90
7518;DHT22;3800;48.922;9.444;2023-02-28T00:32:30;-1.70;99.90
7518;DHT22;3800;48.922;9.444;2023-02-28T00:34:59;-1.80;99.90
7518;DHT22;3800;48.922;9.444;2023-02-28T00:37:26;-1.80;99.90
7518;DHT22;3800;48.922;9.444;2023-02-28T00:39:54;-1.80;99.90
7518;DHT22;3800;48.922;9.444;2023-02-28T00:42:22;-1.80;99.90
7518;DHT22;3800;48.922;9.444;2023-02-28T00:44:49;-1.90;99.90
7518;DHT22;3800;48.922;9.444;2023-02-28T00:47:17;-1.90;99.90
7518;DHT22;3800;48.922;9.444;2023-02-28T00:49:45;-1.90;99.90
7518;DHT22;3800;48.922;9.444;2023-02-28T00:52:12;-1.90;99.90
7518;DHT22;3800;48.922;9.444;2023-02-28T00:54:41;-1.90;99.90
7518;DHT22;3800;48.922;9.444;2023-02-28T00:57:08;-2.00;99.90
7518;DHT22;3800;48.922;9.444;2023-02-28T00:59:36;-1.90;99.90
7518;DHT22;3800;48.922;9.444;2023-02-28T01:02:04;-1.90;99.90
7518;DHT22;3800;48.922;9.444;2023-02-28T01:04:31;-2.00;99.90
7518;DHT22;3800;48.922;9.444;2023-02-28T01:06:59;-2.10;99.90
7518;DHT22;3800;48.922;9.444;2023-02-28T01:09:26;-2.00;99.90
7518;DHT22;3800;48.922;9.444;2023-02-28T01:11:54;-2.10;99.90
7518;DHT22;3800;48.922;9.444;2023-02-28T01:14:22;-2.00;99.90
7518;DHT22;3800;48.922;9.444;2023-02-28T01:16:49;-2.00;99.90
7518;DHT22;3800;48.922;9.444;2023-02-28T01:19:18;-2.00;99.90
7518;DHT22;3800;48.922;9.444;2023-02-28T01:21:45;-2.00;99.90
7518;DHT22;3800;48.922;9.444;2023-02-28T01:24:13;-2.00;99.90
7518;DHT22;3800;48.922;9.444;2023-02-28T01:26:41;-2.00;99.90
7518;DHT22;3800;48.922;9.444;2023-02-28T01:29:08;-2.00;99.90
7518;DHT22;3800;48.922;9.444;2023-02-28T01:31:36;-2.10;99.90
7518;DHT22;3800;48.922;9.444;2023-02-28T01:34:04;-2.10;99.90
7518;DHT22;3800;48.922;9.444;2023-02-28T01:36:31;-2.10;99.90
7518;DHT22;3800;48.922;9.444;2023-02-28T01:38:59;-2.10;99.90
7518;DHT22;3800;48.922;9.444;2023-02-28T01:41:28;-2.10;99.90
7518;DHT22;3800;48.922;9.444;2023-02-28T01:43:56;-2.20;99.90
7518;DHT22;3800;48.922;9.444;2023-02-28T01:46:23;-2.20;99.90
7518;DHT22;3800;48.922;9.444;2023-02-28T01:48:51;-2.20;99.90
7518;DHT22;3800;48.922;9.444;2023-02-28T01:51:21;-2.20;99.90
7518;DHT22;3800;48.922;9.444;2023-02-28T01:53:49;-2.20;99.90
7518;DHT22;3800;48.922;9.444;2023-02-28T01:56:17;-2.20;99.90
7518;DHT22;3800;48.922;9.444;2023-02-28T01:58:43;-2.20;99.90
7518;DHT22;3800;48.922;9.444;2023-02-28T02:01:10;-2.30;99.90
7518;DHT22;3800;48.922;9.444;2023-02-28T02:03:38;-2.30;99.90
7518;DHT22;3800;48.922;9.444;2023-02-28T02:06:06;-2.20;99.90
7518;DHT22;3800;48.922;9.444;2023-02-28T02:08:33;-2.20;99.90
7518;DHT22;3800;48.922;9.444;2023-02-28T02:11:01;-2.20;99.90
7518;DHT22;3800;48.922;9.444;2023-02-28T02:13:42;-2.20;99.90
7518;DHT22;3800;48.922;9.444;2023-02-28T02:17:24;-2.20;99.90
7518;DHT22;3800;48.922;9.444;2023-02-28T02:19:01;-2.20;99.90
7518;DHT22;3800;48.922;9.444;2023-02-28T02:28:02;-2.10;99.90
7518;DHT22;3800;48.922;9.444;2023-02-28T02:32:54;-2.10;99.90
7518;DHT22;3800;48.922;9.444;2023-02-28T02:35:24;-2.10;99.90
7518;DHT22;3800;48.922;9.444;2023-02-28T02:37:58;-2.10;99.90
7518;DHT22;3800;48.922;9.444;2023-02-28T02:40:23;-2.10;99.90
7518;DHT22;3800;48.922;9.444;2023-02-28T02:43:15;-2.10;99.90
7518;DHT22;3800;48.922;9.444;2023-02-28T02:45:47;-2.10;99.90
7518;DHT22;3800;48.922;9.444;2023-02-28T02:48:15;-2.10;99.90
7518;DHT22;3800;48.922;9.444;2023-02-28T02:50:44;-2.10;99.90
7518;DHT22;3800;48.922;9.444;2023-02-28T02:53:10;-2.00;99.90
7518;DHT22;3800;48.922;9.444;2023-02-28T02:55:40;-2.00;99.90
7518;DHT22;3800;48.922;9.444;2023-02-28T02:58:08;-2.00;99.90
7518;DHT22;3800;48.922;9.444;2023-02-28T03:00:37;-2.00;99.90
7518;DHT22;3800;48.922;9.444;2023-02-28T03:03:04;-2.00;99.90
7518;DHT22;3800;48.922;9.444;2023-02-28T03:05:35;-2.00;99.90
7518;DHT22;3800;48.922;9.444;2023-02-28T03:08:03;-2.00;99.90
7518;DHT22;3800;48.922;9.444;2023-02-28T03:10:31;-2.00;99.90
7518;DHT22;3800;48.922;9.444;2023-02-28T03:16:07;-1.90;99.90
7518;DHT22;3800;48.922;9.444;2023-02-28T03:18:51;-1.90;99.90
7518;DHT22;3800;48.922;9.444;2023-02-28T03:21:21;-1.90;99.90
7518;DHT22;3800;48.922;9.444;2023-02-28T03:23:48;-1.90;99.90
7518;DHT22;3800;48.922;9.444;2023-02-28T03:26:19;-1.90;99.90
7518;DHT22;3800;48.922;9.444;2023-02-28T03:29:28;-1.90;99.90
7518;DHT22;3800;48.922;9.444;2023-02-28T03:31:37;-1.90;99.90
7518;DHT22;3800;48.922;9.444;2023-02-28T03:34:08;-1.80;99.90
7518;DHT22;3800;48.922;9.444;2023-02-28T03:36:38;-1.80;99.90
7518;DHT22;3800;48.922;9.444;2023-02-28T03:39:05;-1.80;99.90
7518;DHT22;3800;48.922;9.444;2023-02-28T03:41:35;-1.80;99.90
7518;DHT22;3800;48.922;9.444;2023-02-28T03:44:05;-1.80;99.90
7518;DHT22;3800;48.922;9.444;2023-02-28T03:46:33;-1.80;99.90
7518;DHT22;3800;48.922;9.444;2023-02-28T03:49:03;-1.80;99.90
7518;DHT22;3800;48.922;9.444;2023-02-28T03:51:29;-1.80;99.90
7518;DHT22;3800;48.922;9.444;2023-02-28T03:53:58;-1.80;99.90
7518;DHT22;3800;48.922;9.444;2023-02-28T03:56:31;-1.80;99.90
7518;DHT22;3800;48.922;9.444;2023-02-28T03:59:06;-1.80;99.90
7518;DHT22;3800;48.922;9.444;2023-02-28T04:01:35;-1.70;99.90
7518;DHT22;3800;48.922;9.444;2023-02-28T04:04:01;-1.70;99.90
7518;DHT22;3800;48.922;9.444;2023-02-28T04:06:30;-1.70;99.90
7518;DHT22;3800;48.922;9.444;2023-02-28T04:08:56;-1.70;99.90
7518;DHT22;3800;48.922;9.444;2023-02-28T04:11:42;-1.70;99.90
7518;DHT22;3800;48.922;9.444;2023-02-28T04:14:09;-1.70;99.90
7518;DHT22;3800;48.922;9.444;2023-02-28T04:16:38;-1.70;99.90
7518;DHT22;3800;48.922;9.444;2023-02-28T04:19:05;-1.70;99.90
7518;DHT22;3800;48.922;9.444;2023-02-28T04:21:34;-1.70;99.90
7518;DHT22;3800;48.922;9.444;2023-02-28T04:24:01;-1.70;99.90
7518;DHT22;3800;48.922;9.444;2023-02-28T04:26:32;-1.70;99.90
7518;DHT22;3800;48.922;9.444;2023-02-28T04:28:59;-1.70;99.90
7518;DHT22;3800;48.922;9.444;2023-02-28T04:31:27;-1.70;99.90
7518;DHT22;3800;48.922;9.444;2023-02-28T04:33:54;-1.70;99.90
7518;DHT22;3800;48.922;9.444;2023-02-28T04:36:22;-1.70;99.90
7518;DHT22;3800;48.922;9.444;2023-02-28T04:38:50;-1.60;99.90
7518;DHT22;3800;48.922;9.444;2023-02-28T04:41:17;-1.60;99.90
7518;DHT22;3800;48.922;9.444;2023-02-28T04:43:45;-1.60;99.90
7518;DHT22;3800;48.922;9.444;2023-02-28T04:46:12;-1.60;99.90
7518;DHT22;3800;48.922;9.444;2023-02-28T04:48:40;-1.60;99.90
7518;DHT22;3800;48.922;9.444;2023-02-28T04:51:09;-1.60;99.90
7518;DHT22;3800;48.922;9.444;2023-02-28T04:53:36;-1.60;99.90
7518;DHT22;3800;48.922;9.444;2023-02-28T04:56:03;-1.60;99.90
7518;DHT22;3800;48.922;9.444;2023-02-28T04:58:31;-1.60;99.90
7518;DHT22;3800;48.922;9.444;2023-02-28T05:01:05;-1.60;99.90
7518;DHT22;3800;48.922;9.444;2023-02-28T05:03:31;-1.60;99.90
7518;DHT22;3800;48.922;9.444;2023-02-28T05:05:59;-1.60;99.90
7518;DHT22;3800;48.922;9.444;2023-02-28T05:08:27;-1.60;99.90
7518;DHT22;3800;48.922;9.444;2023-02-28T05:10:54;-1.60;99.90
7518;DHT22;3800;48.922;9.444;2023-02-28T05:13:22;-1.60;99.90
7518;DHT22;3800;48.922;9.444;2023-02-28T05:15:50;-1.60;99.90
7518;DHT22;3800;48.922;9.444;2023-02-28T05:18:18;-1.50;99.90
7518;DHT22;3800;48.922;9.444;2023-02-28T05:20:46;-1.50;99.90
7518;DHT22;3800;48.922;9.444;2023-02-28T05:23:14;-1.50;99.90
7518;DHT22;3800;48.922;9.444;2023-02-28T05:25:41;-1.50;99.90
7518;DHT22;3800;48.922;9.444;2023-02-28T05:28:09;-1.50;99.90
7518;DHT22;3800;48.922;9.444;2023-02-28T05:30:36;-1.50;99.90
7518;DHT22;3800;48.922;9.444;2023-02-28T05:33:04;-1.50;99.90
7518;DHT22;3800;48.922;9.444;2023-02-28T05:35:31;-1.50;99.90
7518;DHT22;3800;48.922;9.444;2023-02-28T05:37:59;-1.50;99.90
7518;DHT22;3800;48.922;9.444;2023-02-28T05:40:27;-1.50;99.90
7518;DHT22;3800;48.922;9.444;2023-02-28T05:42:54;-1.50;99.90
7518;DHT22;3800;48.922;9.444;2023-02-28T05:45:22;-1.50;99.90
7518;DHT22;3800;48.922;9.444;2023-02-28T05:47:53;-1.50;99.90
7518;DHT22;3800;48.922;9.444;2023-02-28T05:50:17;-1.50;99.90
7518;DHT22;3800;48.922;9.444;2023-02-28T05:52:49;-1.50;99.90
7518;DHT22;3800;48.922;9.444;2023-02-28T05:55:13;-1.50;99.90
7518;DHT22;3800;48.922;9.444;2023-02-28T05:57:40;-1.50;99.90
7518;DHT22;3800;48.922;9.444;2023-02-28T06:00:08;-1.50;99.90
7518;DHT22;3800;48.922;9.444;2023-02-28T06:02:38;-1.50;99.90
7518;DHT22;3800;48.922;9.444;2023-02-28T06:05:06;-1.50;99.90
7518;DHT22;3800;48.922;9.444;2023-02-28T06:07:33;-1.50;99.90
7518;DHT22;3800;48.922;9.444;2023-02-28T06:10:01;-1.50;99.90
7518;DHT22;3800;48.922;9.444;2023-02-28T06:12:29;-1.50;99.90
7518;DHT22;3800;48.922;9.444;2023-02-28T06:14:57;-1.50;99.90
7518;DHT22;3800;48.922;9.444;2023-02-28T06:17:24;-1.50;99.90
7518;DHT22;3800;48.922;9.444;2023-02-28T06:19:52;-1.40;99.90
7518;DHT22;3800;48.922;9.444;2023-02-28T06:22:21;-1.50;99.90
7518;DHT22;3800;48.922;9.444;2023-02-28T06:24:49;-1.50;99.90
7518;DHT22;3800;48.922;9.444;2023-02-28T06:27:16;-1.40;99.90
7518;DHT22;3800;48.922;9.444;2023-02-28T06:29:44;-1.40;99.90
7518;DHT22;3800;48.922;9.444;2023-02-28T06:32:12;-1.40;99.90
7518;DHT22;3800;48.922;9.444;2023-02-28T06:34:39;-1.40;99.90
7518;DHT22;3800;48.922;9.444;2023-02-28T06:37:07;-1.40;99.90
7518;DHT22;3800;48.922;9.444;2023-02-28T06:39:35;-1.40;99.90
7518;DHT22;3800;48.922;9.444;2023-02-28T06:42:03;-1.40;99.90
7518;DHT22;3800;48.922;9.444;2023-02-28T06:44:31;-1.40;99.90
7518;DHT22;3800;48.922;9.444;2023-02-28T06:46:59;-1.40;99.90
7518;DHT22;3800;48.922;9.444;2023-02-28T06:49:27;-1.40;99.90
7518;DHT22;3800;48.922;9.444;2023-02-28T06:51:55;-1.40;99.90
7518;DHT22;3800;48.922;9.444;2023-02-28T06:54:23;-1.40;99.90
7518;DHT22;3800;48.922;9.444;2023-02-28T06:56:51;-1.40;99.90
7518;DHT22;3800;48.922;9.444;2023-02-28T06:59:18;-1.30;99.90
7518;DHT22;3800;48.922;9.444;2023-02-28T07:01:46;-1.30;99.90
7518;DHT22;3800;48.922;9.444;2023-02-28T07:04:13;-1.30;99.90
7518;DHT22;3800;48.922;9.444;2023-02-28T07:06:41;-1.30;99.90
7518;DHT22;3800;48.922;9.444;2023-02-28T07:09:10;-1.30;99.90
7518;DHT22;3800;48.922;9.444;2023-02-28T07:11:38;-1.30;99.90
7518;DHT22;3800;48.922;9.444;2023-02-28T07:14:06;-1.30;99.90
7518;DHT22;3800;48.922;9.444;2023-02-28T07:16:35;-1.30;99.90
7518;DHT22;3800;48.922;9.444;2023-02-28T07:19:02;-1.30;99.90
7518;DHT22;3800;48.922;9.444;2023-02-28T07:21:30;-1.20;99.90
7518;DHT22;3800;48.922;9.444;2023-02-28T07:23:58;-1.20;99.90
7518;DHT22;3800;48.922;9.444;2023-02-28T07:26:27;-1.20;99.90
7518;DHT22;3800;48.922;9.444;2023-02-28T07:28:56;-1.20;99.90
7518;DHT22;3800;48.922;9.444;2023-02-28T07:31:24;-1.20;99.90
7518;DHT22;3800;48.922;9.444;2023-02-28T07:33:52;-1.20;99.90
7518;DHT22;3800;48.922;9.444;2023-02-28T07:36:19;-1.20;99.90
7518;DHT22;3800;48.922;9.444;2023-02-28T07:38:48;-1.10;99.90
7518;DHT22;3800;48.922;9.444;2023-02-28T07:41:16;-1.10;99.90
7518;DHT22;3800;48.922;9.444;2023-02-28T07:43:43;-1.10;99.90
7518;DHT22;3800;48.922;9.444;2023-02-28T07:46:12;-1.10;99.90
7518;DHT22;3800;48.922;9.444;2023-02-28T07:48:38;-1.10;99.90
7518;DHT22;3800;48.922;9.444;2023-02-28T07:51:06;-1.00;99.90
7518;DHT22;3800;48.922;9.444;2023-02-28T07:53:34;-1.00;99.90
7518;DHT22;3800;48.922;9.444;2023-02-28T07:56:03;-1.00;99.90
7518;DHT22;3800;48.922;9.444;2023-02-28T07:58:30;-1.00;99.90
7518;DHT22;3800;48.922;9.444;2023-02-28T08:01:04;-1.00;99.90
7518;DHT22;3800;48.922;9.444;2023-02-28T08:03:25;-1.00;99.90
7518;DHT22;3800;48.922;9.444;2023-02-28T08:05:53;-1.00;99.90
7518;DHT22;3800;48.922;9.444;2023-02-28T08:08:20;-1.00;99.90
7518;DHT22;3800;48.922;9.444;2023-02-28T08:10:49;-1.00;99.90
7518;DHT22;3800;48.922;9.444;2023-02-28T08:13:17;-1.00;99.90
7518;DHT22;3800;48.922;9.444;2023-02-28T08:15:45;-1.00;99.90
7518;DHT22;3800;48.922;9.444;2023-02-28T08:18:12;-0.90;99.90
7518;DHT22;3800;48.922;9.444;2023-02-28T08:20:40;-1.00;99.90
7518;DHT22;3800;48.922;9.444;2023-02-28T08:23:08;-1.00;99.90
7518;DHT22;3800;48.922;9.444;2023-02-28T08:25:35;-1.00;99.90
7518;DHT22;3800;48.922;9.444;2023-02-28T08:28:05;-0.90;99.90
7518;DHT22;3800;48.922;9.444;2023-02-28T08:30:33;-0.80;99.90
7518;DHT22;3800;48.922;9.444;2023-02-28T08:33:01;-0.80;99.90
7518;DHT22;3800;48.922;9.444;2023-02-28T08:35:28;-0.70;99.90
7518;DHT22;3800;48.922;9.444;2023-02-28T08:37:57;-0.50;99.90
7518;DHT22;3800;48.922;9.444;2023-02-28T08:40:25;-0.40;99.90
7518;DHT22;3800;48.922;9.444;2023-02-28T08:42:53;-0.40;99.90
7518;DHT22;3800;48.922;9.444;2023-02-28T08:45:21;-0.30;99.90
7518;DHT22;3800;48.922;9.444;2023-02-28T08:47:48;-0.30;99.90
7518;DHT22;3800;48.922;9.444;2023-02-28T08:50:17;-0.20;99.90
7518;DHT22;3800;48.922;9.444;2023-02-28T08:52:46;-0.20;99.90
7518;DHT22;3800;48.922;9.444;2023-02-28T08:55:14;-0.10;99.90
7518;DHT22;3800;48.922;9.444;2023-02-28T08:57:42;0.00;99.90
7518;DHT22;3800;48.922;9.444;2023-02-28T09:00:10;0.00;99.90
7518;DHT22;3800;48.922;9.444;2023-02-28T09:02:38;0.00;99.90
7518;DHT22;3800;48.922;9.444;2023-02-28T09:05:06;0.10;99.90
7518;DHT22;3800;48.922;9.444;2023-02-28T09:07:34;0.10;99.90
7518;DHT22;3800;48.922;9.444;2023-02-28T09:10:02;0.20;99.90
7518;DHT22;3800;48.922;9.444;2023-02-28T09:12:33;0.20;99.90
7518;DHT22;3800;48.922;9.444;2023-02-28T09:14:58;0.40;99.90
7518;DHT22;3800;48.922;9.444;2023-02-28T09:17:26;0.30;99.90
7518;DHT22;3800;48.922;9.444;2023-02-28T09:19:54;0.40;99.90
7518;DHT22;3800;48.922;9.444;2023-02-28T09:22:24;0.50;99.90
7518;DHT22;3800;48.922;9.444;2023-02-28T09:24:51;0.60;99.90
7518;DHT22;3800;48.922;9.444;2023-02-28T09:27:19;0.70;99.90
7518;DHT22;3800;48.922;9.444;2023-02-28T09:29:47;0.70;99.90
7518;DHT22;3800;48.922;9.444;2023-02-28T09:32:15;0.70;99.90
7518;DHT22;3800;48.922;9.444;2023-02-28T09:34:43;0.80;99.90
7518;DHT22;3800;48.922;9.444;2023-02-28T09:37:10;0.80;99.90
7518;DHT22;3800;48.922;9.444;2023-02-28T09:39:38;0.90;99.90
7518;DHT22;3800;48.922;9.444;2023-02-28T09:42:06;0.90;99.90
7518;DHT22;3800;48.922;9.444;2023-02-28T09:44:36;1.00;99.90
7518;DHT22;3800;48.922;9.444;2023-02-28T09:47:14;1.10;99.90
7518;DHT22;3800;48.922;9.444;2023-02-28T09:49:41;1.20;99.90
7518;DHT22;3800;48.922;9.444;2023-02-28T09:52:10;1.30;99.90
7518;DHT22;3800;48.922;9.444;2023-02-28T09:54:36;1.50;99.90
7518;DHT22;3800;48.922;9.444;2023-02-28T09:57:14;1.60;99.90
7518;DHT22;3800;48.922;9.444;2023-02-28T09:59:44;1.70;99.90
7518;DHT22;3800;48.922;9.444;2023-02-28T10:02:18;1.80;99.90
7518;DHT22;3800;48.922;9.444;2023-02-28T10:04:45;1.90;99.90
7518;DHT22;3800;48.922;9.444;2023-02-28T10:07:18;1.90;99.90
7518;DHT22;3800;48.922;9.444;2023-02-28T10:09:44;1.80;99.90
7518;DHT22;3800;48.922;9.444;2023-02-28T10:12:11;1.80;99.90
7518;DHT22;3800;48.922;9.444;2023-02-28T10:14:39;1.80;99.90
7518;DHT22;3800;48.922;9.444;2023-02-28T10:17:11;1.80;99.90
7518;DHT22;3800;48.922;9.444;2023-02-28T10:20:02;1.80;99.90
7518;DHT22;3800;48.922;9.444;2023-02-28T10:22:36;1.90;99.90
7518;DHT22;3800;48.922;9.444;2023-02-28T10:25:05;2.00;99.90
7518;DHT22;3800;48.922;9.444;2023-02-28T10:27:34;2.00;99.90
7518;DHT22;3800;48.922;9.444;2023-02-28T10:30:03;1.90;99.90
7518;DHT22;3800;48.922;9.444;2023-02-28T10:32:33;1.90;99.90
7518;DHT22;3800;48.922;9.444;2023-02-28T10:35:10;2.00;99.90
7518;DHT22;3800;48.922;9.444;2023-02-28T10:37:36;2.00;99.90
7518;DHT22;3800;48.922;9.444;2023-02-28T10:40:02;2.10;99.90
7518;DHT22;3800;48.922;9.444;2023-02-28T10:42:29;2.20;99.90
7518;DHT22;3800;48.922;9.444;2023-02-28T10:45:12;2.30;99.90
7518;DHT22;3800;48.922;9.444;2023-02-28T10:50:28;2.40;99.90
7518;DHT22;3800;48.922;9.444;2023-02-28T10:52:54;2.60;99.90
7518;DHT22;3800;48.922;9.444;2023-02-28T10:55:24;2.70;99.90
7518;DHT22;3800;48.922;9.444;2023-02-28T10:57:50;2.80;99.90
7518;DHT22;3800;48.922;9.444;2023-02-28T11:00:19;2.90;99.90
7518;DHT22;3800;48.922;9.444;2023-02-28T11:02:46;2.90;99.90
7518;DHT22;3800;48.922;9.444;2023-02-28T11:05:22;2.90;99.90
7518;DHT22;3800;48.922;9.444;2023-02-28T11:07:52;2.90;99.90
7518;DHT22;3800;48.922;9.444;2023-02-28T11:10:21;3.00;99.90
7518;DHT22;3800;48.922;9.444;2023-02-28T11:12:48;3.00;99.90
7518;DHT22;3800;48.922;9.444;2023-02-28T11:15:23;3.00;99.90
7518;DHT22;3800;48.922;9.444;2023-02-28T11:17:55;3.00;99.90
7518;DHT22;3800;48.922;9.444;2023-02-28T11:20:25;3.00;99.90
7518;DHT22;3800;48.922;9.444;2023-02-28T11:22:53;3.10;99.90
7518;DHT22;3800;48.922;9.444;2023-02-28T11:25:24;3.10;99.90
7518;DHT22;3800;48.922;9.444;2023-02-28T11:27:51;3.20;99.90
7518;DHT22;3800;48.922;9.444;2023-02-28T11:30:28;3.30;99.90
7518;DHT22;3800;48.922;9.444;2023-02-28T11:32:54;3.30;99.90
7518;DHT22;3800;48.922;9.444;2023-02-28T11:35:26;3.30;99.60
7518;DHT22;3800;48.922;9.444;2023-02-28T11:37:53;3.30;99.90
7518;DHT22;3800;48.922;9.444;2023-02-28T11:40:30;3.30;99.90
7518;DHT22;3800;48.922;9.444;2023-02-28T11:43:06;3.40;99.60
7518;DHT22;3800;48.922;9.444;2023-02-28T11:45:36;3.50;99.90
7518;DHT22;3800;48.922;9.444;2023-02-28T11:50:52;3.60;99.90
7518;DHT22;3800;48.922;9.444;2023-02-28T11:55:59;3.70;98.80
7518;DHT22;3800;48.922;9.444;2023-02-28T11:58:31;3.70;98.80
7518;DHT22;3800;48.922;9.444;2023-02-28T12:01:08;3.60;99.00
7518;DHT22;3800;48.922;9.444;2023-02-28T12:03:42;3.60;98.80
7518;DHT22;3800;48.922;9.444;2023-02-28T12:06:23;3.60;99.50
7518;DHT22;3800;48.922;9.444;2023-02-28T12:09:13;3.70;99.30
7518;DHT22;3800;48.922;9.444;2023-02-28T12:11:56;3.70;99.30
7518;DHT22;3800;48.922;9.444;2023-02-28T12:14:30;3.80;99.70
7518;DHT22;3800;48.922;9.444;2023-02-28T12:19:55;4.10;99.40
7518;DHT22;3800;48.922;9.444;2023-02-28T12:22:29;4.10;98.70
7518;DHT22;3800;48.922;9.444;2023-02-28T12:25:24;4.10;98.70
7518;DHT22;3800;48.922;9.444;2023-02-28T12:27:50;4.10;98.60
7518;DHT22;3800;48.922;9.444;2023-02-28T12:30:21;4.20;98.00
7518;DHT22;3800;48.922;9.444;2023-02-28T12:32:49;4.30;98.30
7518;DHT22;3800;48.922;9.444;2023-02-28T12:35:19;4.30;98.20
7518;DHT22;3800;48.922;9.444;2023-02-28T12:37:47;4.40;98.10
7518;DHT22;3800;48.922;9.444;2023-02-28T12:40:20;4.40;97.60
7518;DHT22;3800;48.922;9.444;2023-02-28T12:42:51;4.40;97.60
7518;DHT22;3800;48.922;9.444;2023-02-28T12:45:19;4.40;97.90
7518;DHT22;3800;48.922;9.444;2023-02-28T12:47:46;4.50;98.10
7518;DHT22;3800;48.922;9.444;2023-02-28T12:50:13;4.60;97.70
7518;DHT22;3800;48.922;9.444;2023-02-28T12:52:46;4.60;97.70
7518;DHT22;3800;48.922;9.444;2023-02-28T12:55:17;4.60;97.90
7518;DHT22;3800;48.922;9.444;2023-02-28T12:57:49;4.60;97.40
7518;DHT22;3800;48.922;9.444;2023-02-28T13:00:19;4.60;97.90
7518;DHT22;3800;48.922;9.444;2023-02-28T13:02:56;4.70;98.10
7518;DHT22;3800;48.922;9.444;2023-02-28T13:08:44;4.70;97.00
7518;DHT22;3800;48.922;9.444;2023-02-28T13:11:06;4.70;97.00
7518;DHT22;3800;48.922;9.444;2023-02-28T13:13:35;4.70;97.40
7518;DHT22;3800;48.922;9.444;2023-02-28T13:16:08;4.70;97.40
7518;DHT22;3800;48.922;9.444;2023-02-28T13:18:38;4.70;97.30
7518;DHT22;3800;48.922;9.444;2023-02-28T13:21:07;4.70;97.30
7518;DHT22;3800;48.922;9.444;2023-02-28T13:24:00;4.80;97.80
7518;DHT22;3800;48.922;9.444;2023-02-28T13:27:22;4.70;97.70
7518;DHT22;3800;48.922;9.444;2023-02-28T13:29:34;4.80;97.90
7518;DHT22;3800;48.922;9.444;2023-02-28T13:32:19;4.80;97.20
7518;DHT22;3800;48.922;9.444;2023-02-28T13:35:12;4.80;96.80
7518;DHT22;3800;48.922;9.444;2023-02-28T13:37:36;4.80;97.40
7518;DHT22;3800;48.922;9.444;2023-02-28T13:42:54;4.80;96.90
7518;DHT22;3800;48.922;9.444;2023-02-28T13:45:24;4.90;97.20
7518;DHT22;3800;48.922;9.444;2023-02-28T13:47:53;4.90;97.40
7518;DHT22;3800;48.922;9.444;2023-02-28T13:50:28;4.90;97.70
7518;DHT22;3800;48.922;9.444;2023-02-28T13:53:11;4.90;97.00
7518;DHT22;3800;48.922;9.444;2023-02-28T13:55:44;4.90;97.20
7518;DHT22;3800;48.922;9.444;2023-02-28T13:58:35;4.90;96.60
7518;DHT22;3800;48.922;9.444;2023-02-28T14:01:21;4.90;96.70
7518;DHT22;3800;48.922;9.444;2023-02-28T14:03:52;5.00;97.50
7518;DHT22;3800;48.922;9.444;2023-02-28T14:06:22;5.00;97.50
7518;DHT22;3800;48.922;9.444;2023-02-28T14:11:33;5.00;96.50
7518;DHT22;3800;48.922;9.444;2023-02-28T14:13:59;5.00;97.00
7518;DHT22;3800;48.922;9.444;2023-02-28T14:19:01;5.10;97.40
7518;DHT22;3800;48.922;9.444;2023-02-28T14:21:31;5.10;97.90
7518;DHT22;3800;48.922;9.444;2023-02-28T14:24:25;5.00;97.40
7518;DHT22;3800;48.922;9.444;2023-02-28T14:27:11;5.00;96.90
7518;DHT22;3800;48.922;9.444;2023-02-28T14:38:01;5.10;97.30
7518;DHT22;3800;48.922;9.444;2023-02-28T14:40:30;5.10;97.40
7518;DHT22;3800;48.922;9.444;2023-02-28T14:42:59;5.10;97.60
7518;DHT22;3800;48.922;9.444;2023-02-28T14:45:26;5.20;97.60
7518;DHT22;3800;48.922;9.444;2023-02-28T14:47:53;5.20;97.70
7518;DHT22;3800;48.922;9.444;2023-02-28T14:50:22;5.20;97.60
7518;DHT22;3800;48.922;9.444;2023-02-28T14:52:52;5.20;97.80
7518;DHT22;3800;48.922;9.444;2023-02-28T14:55:19;5.20;97.70
7518;DHT22;3800;48.922;9.444;2023-02-28T14:57:51;5.20;97.20
7518;DHT22;3800;48.922;9.444;2023-02-28T15:00:23;5.10;97.30
7518;DHT22;3800;48.922;9.444;2023-02-28T15:02:49;5.20;97.30
7518;DHT22;3800;48.922;9.444;2023-02-28T15:05:32;5.20;96.70
7518;DHT22;3800;48.922;9.444;2023-02-28T15:08:17;5.10;96.80
7518;DHT22;3800;48.922;9.444;2023-02-28T15:10:50;5.20;97.00
7518;DHT22;3800;48.922;9.444;2023-02-28T15:13:14;5.20;97.60
7518;DHT22;3800;48.922;9.444;2023-02-28T15:15:45;5.20;96.90
7518;DHT22;3800;48.922;9.444;2023-02-28T15:18:21;5.20;96.60
7518;DHT22;3800;48.922;9.444;2023-02-28T15:20:44;5.20;96.50
7518;DHT22;3800;48.922;9.444;2023-02-28T15:23:12;5.10;97.00
7518;DHT22;3800;48.922;9.444;2023-02-28T15:25:40;5.20;97.00
7518;DHT22;3800;48.922;9.444;2023-02-28T15:28:11;5.20;97.30
7518;DHT22;3800;48.922;9.444;2023-02-28T15:30:37;5.20;97.40
7518;DHT22;3800;48.922;9.444;2023-02-28T15:33:23;5.20;97.20
7518;DHT22;3800;48.922;9.444;2023-02-28T15:36:02;5.20;97.10
7518;DHT22;3800;48.922;9.444;2023-02-28T15:38:25;5.10;96.70
7518;DHT22;3800;48.922;9.444;2023-02-28T15:40:57;5.10;97.40
7518;DHT22;3800;48.922;9.444;2023-02-28T15:43:27;5.10;97.30
7518;DHT22;3800;48.922;9.444;2023-02-28T15:46:06;5.10;97.80
7518;DHT22;3800;48.922;9.444;2023-02-28T15:48:37;5.10;97.70
7518;DHT22;3800;48.922;9.444;2023-02-28T15:51:08;5.00;97.60
7518;DHT22;3800;48.922;9.444;2023-02-28T15:53:37;5.00;97.80
7518;DHT22;3800;48.922;9.444;2023-02-28T15:56:05;4.90;97.30
7518;DHT22;3800;48.922;9.444;2023-02-28T15:58:32;4.90;97.70
7518;DHT22;3800;48.922;9.444;2023-02-28T16:01:03;4.80;98.60
7518;DHT22;3800;48.922;9.444;2023-02-28T16:03:33;4.70;98.80
7518;DHT22;3800;48.922;9.444;2023-02-28T16:08:50;4.50;98.40
7518;DHT22;3800;48.922;9.444;2023-02-28T16:11:18;4.40;98.50
7518;DHT22;3800;48.922;9.444;2023-02-28T16:13:47;4.30;99.00
7518;DHT22;3800;48.922;9.444;2023-02-28T16:16:17;4.20;99.00
7518;DHT22;3800;48.922;9.444;2023-02-28T16:18:44;4.10;99.60
7518;DHT22;3800;48.922;9.444;2023-02-28T16:21:13;4.00;99.40
7518;DHT22;3800;48.922;9.444;2023-02-28T16:23:41;4.00;99.30
7518;DHT22;3800;48.922;9.444;2023-02-28T16:26:14;4.00;98.30
7518;DHT22;3800;48.922;9.444;2023-02-28T16:28:38;4.00;98.30
7518;DHT22;3800;48.922;9.444;2023-02-28T16:31:06;4.00;98.40
7518;DHT22;3800;48.922;9.444;2023-02-28T16:33:34;4.00;99.20
7518;DHT22;3800;48.922;9.444;2023-02-28T16:36:01;3.90;99.10
7518;DHT22;3800;48.922;9.444;2023-02-28T16:38:30;3.80;98.60
7518;DHT22;3800;48.922;9.444;2023-02-28T16:40:58;3.80;99.00
7518;DHT22;3800;48.922;9.444;2023-02-28T16:43:26;3.70;99.00
7518;DHT22;3800;48.922;9.444;2023-02-28T16:45:55;3.70;99.20
7518;DHT22;3800;48.922;9.444;2023-02-28T16:48:22;3.60;99.40
7518;DHT22;3800;48.922;9.444;2023-02-28T16:50:51;3.50;99.90
7518;DHT22;3800;48.922;9.444;2023-02-28T16:53:19;3.40;99.80
7518;DHT22;3800;48.922;9.444;2023-02-28T16:55:47;3.30;99.90
7518;DHT22;3800;48.922;9.444;2023-02-28T16:58:15;3.20;99.90
7518;DHT22;3800;48.922;9.444;2023-02-28T17:00:43;3.10;99.90
7518;DHT22;3800;48.922;9.444;2023-02-28T17:03:17;3.00;99.90
7518;DHT22;3800;48.922;9.444;2023-02-28T17:05:40;2.90;99.90
7518;DHT22;3800;48.922;9.444;2023-02-28T17:08:09;2.80;99.90
7518;DHT22;3800;48.922;9.444;2023-02-28T17:10:37;2.70;99.90